sensor_id;sensor_type;location;lat;lon;timestamp;pressure;altitude;pressure_sealevel;temperature;humidity
73501;BME280;61721;42.206;25.320;2022-10-31T00:02:16;99889.19;;;15.83;31.22
73501;BME280;61721;42.206;25.320;2022-10-31T00:04:45;99887.34;;;15.84;31.29
73501;BME280;61721;42.206;25.320;2022-10-31T00:07:14;99889.53;;;15.80;31.22
73501;BME280;61721;42.206;25.320;2022-10-31T00:09:43;99890.38;;;15.73;31.32
73501;BME280;61721;42.206;25.320;2022-10-31T00:12:11;99883.97;;;15.66;31.82
73501;BME280;61721;42.206;25.320;2022-10-31T00:14:42;99877.72;;;15.65;31.95
73501;BME280;61721;42.206;25.320;2022-10-31T00:17:10;99883.97;;;15.66;31.95
73501;BME280;61721;42.206;25.320;2022-10-31T00:19:39;99882.63;;;15.62;32.13
73501;BME280;61721;42.206;25.320;2022-10-31T00:22:08;99880.97;;;15.69;31.80
73501;BME280;61721;42.206;25.320;2022-10-31T00:24:37;99885.66;;;15.75;31.93
73501;BME280;61721;42.206;25.320;2022-10-31T00:27:07;99877.91;;;15.72;32.08
73501;BME280;61721;42.206;25.320;2022-10-31T00:29:35;99880.63;;;15.64;32.00
73501;BME280;61721;42.206;25.320;2022-10-31T00:32:06;99876.69;;;15.34;32.78
73501;BME280;61721;42.206;25.320;2022-10-31T00:34:34;99890.69;;;15.29;32.77
73501;BME280;61721;42.206;25.320;2022-10-31T00:37:05;99883.28;;;15.48;32.52
73501;BME280;61721;42.206;25.320;2022-10-31T00:39:34;99875.22;;;15.56;32.45
73501;BME280;61721;42.206;25.320;2022-10-31T00:42:03;99880.28;;;15.59;32.26
73501;BME280;61721;42.206;25.320;2022-10-31T00:44:32;99883.31;;;15.56;32.26
73501;BME280;61721;42.206;25.320;2022-10-31T00:47:02;99883.50;;;15.54;32.44
73501;BME280;61721;42.206;25.320;2022-10-31T00:49:32;99891.75;;;15.53;32.47
73501;BME280;61721;42.206;25.320;2022-10-31T00:52:01;99894.75;;;15.50;32.32
73501;BME280;61721;42.206;25.320;2022-10-31T00:54:30;99893.22;;;15.47;32.34
73501;BME280;61721;42.206;25.320;2022-10-31T00:56:59;99891.75;;;15.53;32.42
73501;BME280;61721;42.206;25.320;2022-10-31T00:59:28;99892.75;;;15.52;32.16
73501;BME280;61721;42.206;25.320;2022-10-31T01:01:57;99885.31;;;15.46;32.05
73501;BME280;61721;42.206;25.320;2022-10-31T01:04:26;99887.50;;;15.42;32.05
73501;BME280;61721;42.206;25.320;2022-10-31T01:06:56;99896.75;;;15.39;32.15
73501;BME280;61721;42.206;25.320;2022-10-31T01:09:25;99900.13;;;15.25;32.24
73501;BME280;61721;42.206;25.320;2022-10-31T01:11:55;99892.72;;;15.27;32.53
73501;BME280;61721;42.206;25.320;2022-10-31T01:14:24;99893.06;;;15.32;32.70
73501;BME280;61721;42.206;25.320;2022-10-31T01:16:53;99892.75;;;15.44;32.34
73501;BME280;61721;42.206;25.320;2022-10-31T01:19:22;99885.69;;;15.59;31.81
73501;BME280;61721;42.206;25.320;2022-10-31T01:21:56;99884.31;;;15.71;32.23
73501;BME280;61721;42.206;25.320;2022-10-31T01:24:24;99879.25;;;15.68;32.00
73501;BME280;61721;42.206;25.320;2022-10-31T01:26:53;99877.56;;;15.67;31.84
73501;BME280;61721;42.206;25.320;2022-10-31T01:29:23;99879.94;;;15.62;32.08
73501;BME280;61721;42.206;25.320;2022-10-31T01:31:52;99883.00;;;15.59;31.82
73501;BME280;61721;42.206;25.320;2022-10-31T01:34:21;99880.28;;;15.59;32.02
73501;BME280;61721;42.206;25.320;2022-10-31T01:36:50;99880.28;;;15.59;31.53
73501;BME280;61721;42.206;25.320;2022-10-31T01:39:20;99872.19;;;15.59;31.50
73501;BME280;61721;42.206;25.320;2022-10-31T01:41:50;99874.38;;;15.55;31.60
73501;BME280;61721;42.206;25.320;2022-10-31T01:44:50;99877.41;;;15.52;31.91
73501;BME280;61721;42.206;25.320;2022-10-31T01:47:30;99883.66;;;15.53;31.85
73501;BME280;61721;42.206;25.320;2022-10-31T01:50:03;99878.09;;;15.54;31.81
73501;BME280;61721;42.206;25.320;2022-10-31T01:52:36;99878.25;;;15.61;32.20
73501;BME280;61721;42.206;25.320;2022-10-31T01:55:13;99881.28;;;15.66;32.22
73501;BME280;61721;42.206;25.320;2022-10-31T01:57:46;99875.88;;;15.66;31.59
73501;BME280;61721;42.206;25.320;2022-10-31T02:00:16;99878.25;;;15.69;31.92
73501;BME280;61721;42.206;25.320;2022-10-31T02:02:46;99882.13;;;15.66;32.16
73501;BME280;61721;42.206;25.320;2022-10-31T02:05:19;99892.06;;;15.66;32.00
73501;BME280;61721;42.206;25.320;2022-10-31T02:07:54;99890.06;;;15.68;32.61
73501;BME280;61721;42.206;25.320;2022-10-31T02:10:27;99888.53;;;15.73;32.21
73501;BME280;61721;42.206;25.320;2022-10-31T02:12:58;99883.28;;;15.80;32.24
73501;BME280;61721;42.206;25.320;2022-10-31T02:15:31;99885.66;;;15.83;32.34
73501;BME280;61721;42.206;25.320;2022-10-31T02:18:01;99900.13;;;15.90;32.09
73501;BME280;61721;42.206;25.320;2022-10-31T02:20:33;99895.41;;;15.92;32.80
73501;BME280;61721;42.206;25.320;2022-10-31T02:23:31;99905.00;;;16.03;32.43
73501;BME280;61721;42.206;25.320;2022-10-31T02:26:31;99901.78;;;16.07;32.29
73501;BME280;61721;42.206;25.320;2022-10-31T02:32:13;99897.84;;;16.34;32.13
73501;BME280;61721;42.206;25.320;2022-10-31T02:34:51;99902.34;;;16.50;32.36
73501;BME280;61721;42.206;25.320;2022-10-31T02:37:25;99905.66;;;16.68;32.27
73501;BME280;61721;42.206;25.320;2022-10-31T02:40:02;99903.03;;;16.83;32.22
73501;BME280;61721;42.206;25.320;2022-10-31T02:42:39;99908.91;;;16.94;32.35
73501;BME280;61721;42.206;25.320;2022-10-31T02:45:14;99900.09;;;17.00;32.16
73501;BME280;61721;42.206;25.320;2022-10-31T02:47:51;99904.41;;;17.09;32.31
73501;BME280;61721;42.206;25.320;2022-10-31T02:50:24;99906.22;;;17.17;32.23
73501;BME280;61721;42.206;25.320;2022-10-31T02:52:56;99909.88;;;17.24;32.33
73501;BME280;61721;42.206;25.320;2022-10-31T02:55:56;99911.75;;;17.24;32.21
73501;BME280;61721;42.206;25.320;2022-10-31T02:58:30;99904.78;;;17.29;32.31
73501;BME280;61721;42.206;25.320;2022-10-31T03:01:13;99910.31;;;17.36;32.34
73501;BME280;61721;42.206;25.320;2022-10-31T03:03:58;99909.47;;;17.35;32.62
73501;BME280;61721;42.206;25.320;2022-10-31T03:06:32;99910.31;;;17.36;32.55
73501;BME280;61721;42.206;25.320;2022-10-31T03:09:07;99910.31;;;17.36;32.63
73501;BME280;61721;42.206;25.320;2022-10-31T03:11:45;99916.75;;;17.35;32.75
73501;BME280;61721;42.206;25.320;2022-10-31T03:14:20;99913.19;;;17.34;32.70
73501;BME280;61721;42.206;25.320;2022-10-31T03:16:51;99916.06;;;17.33;32.68
73501;BME280;61721;42.206;25.320;2022-10-31T03:19:25;99922.84;;;17.37;32.93
73501;BME280;61721;42.206;25.320;2022-10-31T03:21:57;99920.13;;;17.37;33.10
73501;BME280;61721;42.206;25.320;2022-10-31T03:24:32;99925.53;;;17.37;33.14
73501;BME280;61721;42.206;25.320;2022-10-31T03:27:06;99930.75;;;17.38;33.14
73501;BME280;61721;42.206;25.320;2022-10-31T03:29:38;99931.88;;;17.44;33.11
73501;BME280;61721;42.206;25.320;2022-10-31T03:32:12;99923.06;;;17.50;33.43
73501;BME280;61721;42.206;25.320;2022-10-31T03:34:45;99930.63;;;17.54;33.23
73501;BME280;61721;42.206;25.320;2022-10-31T03:37:18;99931.00;;;17.51;33.52
73501;BME280;61721;42.206;25.320;2022-10-31T03:39:49;99927.78;;;17.48;33.52
73501;BME280;61721;42.206;25.320;2022-10-31T03:42:21;99935.81;;;17.41;33.55
73501;BME280;61721;42.206;25.320;2022-10-31T03:44:55;99942.09;;;17.34;33.97
73501;BME280;61721;42.206;25.320;2022-10-31T03:47:27;99947.94;;;17.23;34.06
73501;BME280;61721;42.206;25.320;2022-10-31T03:49:58;99941.56;;;17.16;34.28
73501;BME280;61721;42.206;25.320;2022-10-31T03:52:29;99941.56;;;17.16;34.20
73501;BME280;61721;42.206;25.320;2022-10-31T03:55:06;99931.44;;;17.09;34.36
73501;BME280;61721;42.206;25.320;2022-10-31T03:57:41;99944.66;;;17.04;34.42
73501;BME280;61721;42.206;25.320;2022-10-31T04:00:13;99947.06;;;16.99;34.54
73501;BME280;61721;42.206;25.320;2022-10-31T04:02:45;99958.25;;;16.96;34.62
73501;BME280;61721;42.206;25.320;2022-10-31T04:05:19;99948.78;;;16.92;34.65
73501;BME280;61721;42.206;25.320;2022-10-31T04:07:53;99948.75;;;17.00;34.74
73501;BME280;61721;42.206;25.320;2022-10-31T04:10:24;99949.09;;;16.97;34.53
73501;BME280;61721;42.206;25.320;2022-10-31T04:12:58;99952.41;;;17.07;34.68
73501;BME280;61721;42.206;25.320;2022-10-31T04:15:31;99937.84;;;17.17;34.25
73501;BME280;61721;42.206;25.320;2022-10-31T04:18:00;99940.84;;;17.22;34.10
73501;BME280;61721;42.206;25.320;2022-10-31T04:20:36;99941.03;;;17.20;34.26
73501;BME280;61721;42.206;25.320;2022-10-31T04:23:14;99942.88;;;17.20;34.51
73501;BME280;61721;42.206;25.320;2022-10-31T04:25:46;99936.78;;;17.26;34.06
73501;BME280;61721;42.206;25.320;2022-10-31T04:28:14;99946.59;;;17.19;34.13
73501;BME280;61721;42.206;25.320;2022-10-31T04:30:43;99947.69;;;17.09;34.44
73501;BME280;61721;42.206;25.320;2022-10-31T04:33:12;99964.59;;;17.03;34.57
73501;BME280;61721;42.206;25.320;2022-10-31T04:35:42;99960.28;;;16.94;34.79
73501;BME280;61721;42.206;25.320;2022-10-31T04:38:11;99958.44;;;16.87;35.07
73501;BME280;61721;42.206;25.320;2022-10-31T04:40:40;99959.16;;;16.81;35.19
73501;BME280;61721;42.206;25.320;2022-10-31T04:43:09;99957.63;;;16.78;35.22
73501;BME280;61721;42.206;25.320;2022-10-31T04:45:38;99969.47;;;16.77;35.20
73501;BME280;61721;42.206;25.320;2022-10-31T04:48:09;99980.28;;;16.77;35.35
73501;BME280;61721;42.206;25.320;2022-10-31T04:50:37;99983.97;;;16.76;35.22
73501;BME280;61721;42.206;25.320;2022-10-31T04:53:08;99991.28;;;16.76;35.59
73501;BME280;61721;42.206;25.320;2022-10-31T04:55:37;99990.75;;;16.72;35.33
73501;BME280;61721;42.206;25.320;2022-10-31T04:58:06;99991.75;;;16.79;35.33
73501;BME280;61721;42.206;25.320;2022-10-31T05:00:34;99985.69;;;16.77;35.41
73501;BME280;61721;42.206;25.320;2022-10-31T05:03:03;99987.00;;;16.81;35.40
73501;BME280;61721;42.206;25.320;2022-10-31T05:05:38;99986.00;;;16.82;35.74
73501;BME280;61721;42.206;25.320;2022-10-31T05:08:08;99993.41;;;16.88;35.39
73501;BME280;61721;42.206;25.320;2022-10-31T05:10:43;100001.19;;;16.91;35.55
73501;BME280;61721;42.206;25.320;2022-10-31T05:13:12;100007.94;;;16.87;35.57
73501;BME280;61721;42.206;25.320;2022-10-31T05:15:47;100003.38;;;16.88;35.70
73501;BME280;61721;42.206;25.320;2022-10-31T05:18:17;100008.47;;;16.91;35.30
73501;BME280;61721;42.206;25.320;2022-10-31T05:20:46;100007.25;;;16.93;35.13
73501;BME280;61721;42.206;25.320;2022-10-31T05:23:16;100009.94;;;17.01;35.27
73501;BME280;61721;42.206;25.320;2022-10-31T05:25:45;100008.56;;;16.97;35.18
73501;BME280;61721;42.206;25.320;2022-10-31T05:28:14;100022.41;;;17.02;35.25
73501;BME280;61721;42.206;25.320;2022-10-31T05:30:43;100018.03;;;17.01;35.22
73501;BME280;61721;42.206;25.320;2022-10-31T05:33:12;100027.16;;;17.00;35.42
73501;BME280;61721;42.206;25.320;2022-10-31T05:38:29;100038.34;;;16.89;35.81
73501;BME280;61721;42.206;25.320;2022-10-31T05:40:58;100045.09;;;16.93;35.77
73501;BME280;61721;42.206;25.320;2022-10-31T05:43:28;100049.50;;;16.94;35.75
73501;BME280;61721;42.206;25.320;2022-10-31T05:45:57;100046.09;;;17.00;35.54
73501;BME280;61721;42.206;25.320;2022-10-31T05:48:26;100048.47;;;16.95;35.79
73501;BME280;61721;42.206;25.320;2022-10-31T05:50:55;100066.03;;;16.99;35.92
73501;BME280;61721;42.206;25.320;2022-10-31T05:53:24;100060.25;;;17.02;35.84
73501;BME280;61721;42.206;25.320;2022-10-31T05:55:54;100065.16;;;17.07;35.91
73501;BME280;61721;42.206;25.320;2022-10-31T05:58:23;100055.16;;;17.16;35.70
73501;BME280;61721;42.206;25.320;2022-10-31T06:00:52;100060.34;;;17.25;35.64
73501;BME280;61721;42.206;25.320;2022-10-31T06:03:21;100058.13;;;17.29;35.75
73501;BME280;61721;42.206;25.320;2022-10-31T06:05:50;100068.31;;;17.27;35.69
73501;BME280;61721;42.206;25.320;2022-10-31T06:08:19;100074.06;;;17.24;35.74
73501;BME280;61721;42.206;25.320;2022-10-31T06:10:48;100078.28;;;17.26;35.67
73501;BME280;61721;42.206;25.320;2022-10-31T06:13:18;100078.75;;;17.30;35.72
73501;BME280;61721;42.206;25.320;2022-10-31T06:15:47;100084.19;;;17.30;35.71
73501;BME280;61721;42.206;25.320;2022-10-31T06:18:15;100090.91;;;17.34;35.58
73501;BME280;61721;42.206;25.320;2022-10-31T06:20:44;100083.09;;;17.39;35.70
73501;BME280;61721;42.206;25.320;2022-10-31T06:23:13;100086.97;;;17.44;35.67
73501;BME280;61721;42.206;25.320;2022-10-31T06:25:42;100094.03;;;17.53;35.56
73501;BME280;61721;42.206;25.320;2022-10-31T06:28:11;100093.28;;;17.68;35.35
73501;BME280;61721;42.206;25.320;2022-10-31T06:30:47;100096.91;;;17.83;35.25
73501;BME280;61721;42.206;25.320;2022-10-31T06:33:16;100091.09;;;17.94;34.93
73501;BME280;61721;42.206;25.320;2022-10-31T06:35:46;100095.66;;;17.93;35.18
73501;BME280;61721;42.206;25.320;2022-10-31T06:38:15;100099.75;;;17.89;35.17
73501;BME280;61721;42.206;25.320;2022-10-31T06:40:44;100100.03;;;18.03;34.92
73501;BME280;61721;42.206;25.320;2022-10-31T06:43:13;100105.31;;;18.42;34.47
73501;BME280;61721;42.206;25.320;2022-10-31T06:45:43;100113.09;;;18.97;34.52
73501;BME280;61721;42.206;25.320;2022-10-31T06:48:13;100102.97;;;19.05;33.18
73501;BME280;61721;42.206;25.320;2022-10-31T06:50:42;100097.09;;;19.60;32.89
73501;BME280;61721;42.206;25.320;2022-10-31T06:53:10;100111.81;;;20.30;32.18
73501;BME280;61721;42.206;25.320;2022-10-31T06:55:40;100115.06;;;20.89;31.72
73501;BME280;61721;42.206;25.320;2022-10-31T06:58:10;100105.56;;;21.41;31.31
73501;BME280;61721;42.206;25.320;2022-10-31T07:00:39;100112.19;;;21.79;31.00
73501;BME280;61721;42.206;25.320;2022-10-31T07:03:10;100108.75;;;21.98;30.86
73501;BME280;61721;42.206;25.320;2022-10-31T07:05:41;100103.63;;;21.82;31.11
73501;BME280;61721;42.206;25.320;2022-10-31T07:08:12;100107.44;;;21.88;31.07
73501;BME280;61721;42.206;25.320;2022-10-31T07:10:42;100112.41;;;21.84;31.26
73501;BME280;61721;42.206;25.320;2022-10-31T07:13:13;100108.19;;;22.29;30.76
73501;BME280;61721;42.206;25.320;2022-10-31T07:15:43;100113.44;;;22.83;30.28
73501;BME280;61721;42.206;25.320;2022-10-31T07:18:12;100111.94;;;23.20;30.11
73501;BME280;61721;42.206;25.320;2022-10-31T07:20:42;100108.72;;;23.50;29.65
73501;BME280;61721;42.206;25.320;2022-10-31T07:23:11;100102.72;;;23.72;29.63
73501;BME280;61721;42.206;25.320;2022-10-31T07:25:40;100100.44;;;24.07;29.43
73501;BME280;61721;42.206;25.320;2022-10-31T07:28:09;100103.59;;;24.42;29.09
73501;BME280;61721;42.206;25.320;2022-10-31T07:30:39;100104.59;;;24.73;28.84
73501;BME280;61721;42.206;25.320;2022-10-31T07:33:08;100105.28;;;24.93;28.79
73501;BME280;61721;42.206;25.320;2022-10-31T07:35:37;100104.88;;;25.14;28.49
73501;BME280;61721;42.206;25.320;2022-10-31T07:38:11;100115.88;;;25.26;28.43
73501;BME280;61721;42.206;25.320;2022-10-31T07:40:42;100116.00;;;25.55;28.58
73501;BME280;61721;42.206;25.320;2022-10-31T07:43:11;100114.75;;;25.88;27.92
73501;BME280;61721;42.206;25.320;2022-10-31T07:45:40;100108.75;;;26.09;27.82
73501;BME280;61721;42.206;25.320;2022-10-31T07:48:09;100108.97;;;26.37;27.46
73501;BME280;61721;42.206;25.320;2022-10-31T07:50:38;100110.59;;;26.68;27.42
73501;BME280;61721;42.206;25.320;2022-10-31T07:53:11;100118.88;;;27.03;27.01
73501;BME280;61721;42.206;25.320;2022-10-31T07:55:40;100116.31;;;27.48;26.48
73501;BME280;61721;42.206;25.320;2022-10-31T07:58:11;100111.97;;;27.76;26.57
73501;BME280;61721;42.206;25.320;2022-10-31T08:00:41;100108.50;;;28.08;26.17
73501;BME280;61721;42.206;25.320;2022-10-31T08:03:12;100112.25;;;28.02;26.12
73501;BME280;61721;42.206;25.320;2022-10-31T08:05:41;100104.88;;;28.20;26.10
73501;BME280;61721;42.206;25.320;2022-10-31T08:08:15;100109.22;;;28.16;26.42
73501;BME280;61721;42.206;25.320;2022-10-31T08:10:43;100106.88;;;28.24;26.14
73501;BME280;61721;42.206;25.320;2022-10-31T08:13:13;100105.38;;;27.88;26.55
73501;BME280;61721;42.206;25.320;2022-10-31T08:15:44;100119.09;;;28.45;26.10
73501;BME280;61721;42.206;25.320;2022-10-31T08:18:17;100116.84;;;29.25;25.14
73501;BME280;61721;42.206;25.320;2022-10-31T08:20:46;100110.59;;;29.73;25.11
73501;BME280;61721;42.206;25.320;2022-10-31T08:23:16;100107.09;;;30.00;24.33
73501;BME280;61721;42.206;25.320;2022-10-31T08:25:45;100106.88;;;30.06;24.46
73501;BME280;61721;42.206;25.320;2022-10-31T08:28:15;100103.44;;;30.21;24.26
73501;BME280;61721;42.206;25.320;2022-10-31T08:30:44;100110.69;;;30.27;24.35
73501;BME280;61721;42.206;25.320;2022-10-31T08:33:14;100104.88;;;30.29;24.61
73501;BME280;61721;42.206;25.320;2022-10-31T08:35:44;100117.06;;;29.62;24.93
73501;BME280;61721;42.206;25.320;2022-10-31T08:38:13;100114.81;;;28.82;25.96
73501;BME280;61721;42.206;25.320;2022-10-31T08:40:48;100111.16;;;29.32;25.51
73501;BME280;61721;42.206;25.320;2022-10-31T08:43:17;100106.97;;;29.29;25.23
73501;BME280;61721;42.206;25.320;2022-10-31T08:45:48;100108.13;;;29.94;24.85
73501;BME280;61721;42.206;25.320;2022-10-31T08:48:18;100103.44;;;30.21;24.96
73501;BME280;61721;42.206;25.320;2022-10-31T08:50:47;100113.31;;;30.71;23.74
73501;BME280;61721;42.206;25.320;2022-10-31T08:53:18;100109.19;;;31.05;23.96
73501;BME280;61721;42.206;25.320;2022-10-31T08:55:48;100115.38;;;31.22;23.20
73501;BME280;61721;42.206;25.320;2022-10-31T08:58:19;100109.06;;;31.32;23.40
73501;BME280;61721;42.206;25.320;2022-10-31T09:00:51;100110.38;;;31.66;23.28
73501;BME280;61721;42.206;25.320;2022-10-31T09:03:21;100105.19;;;31.90;23.22
73501;BME280;61721;42.206;25.320;2022-10-31T09:05:54;100119.47;;;32.34;22.91
73501;BME280;61721;42.206;25.320;2022-10-31T09:08:23;100114.75;;;32.35;22.83
73501;BME280;61721;42.206;25.320;2022-10-31T09:10:55;100112.66;;;31.32;24.66
73501;BME280;61721;42.206;25.320;2022-10-31T09:13:33;100114.91;;;30.62;24.52
73501;BME280;61721;42.206;25.320;2022-10-31T09:16:03;100113.44;;;30.00;24.91
73501;BME280;61721;42.206;25.320;2022-10-31T09:18:32;100121.56;;;29.47;24.91
73501;BME280;61721;42.206;25.320;2022-10-31T09:21:12;100120.44;;;29.64;25.13
73501;BME280;61721;42.206;25.320;2022-10-31T09:23:41;100116.78;;;30.56;24.56
73501;BME280;61721;42.206;25.320;2022-10-31T09:26:12;100110.66;;;30.86;23.85
73501;BME280;61721;42.206;25.320;2022-10-31T09:28:43;100119.38;;;31.47;23.86
73501;BME280;61721;42.206;25.320;2022-10-31T09:31:15;100111.06;;;31.47;23.86
73501;BME280;61721;42.206;25.320;2022-10-31T09:33:44;100109.03;;;31.79;23.45
73501;BME280;61721;42.206;25.320;2022-10-31T09:36:13;100112.59;;;31.64;23.26
73501;BME280;61721;42.206;25.320;2022-10-31T09:38:41;100106.28;;;31.84;23.59
73501;BME280;61721;42.206;25.320;2022-10-31T09:41:19;100103.13;;;32.58;22.33
73501;BME280;61721;42.206;25.320;2022-10-31T09:43:58;100099.81;;;32.96;22.32
73501;BME280;61721;42.206;25.320;2022-10-31T09:46:36;100101.69;;;33.36;21.44
73501;BME280;61721;42.206;25.320;2022-10-31T09:49:37;100105.03;;;33.13;22.41
73501;BME280;61721;42.206;25.320;2022-10-31T09:52:16;100098.13;;;33.10;21.32
73501;BME280;61721;42.206;25.320;2022-10-31T09:54:51;100094.78;;;33.08;21.63
73501;BME280;61721;42.206;25.320;2022-10-31T09:57:27;100089.38;;;33.58;21.74
73501;BME280;61721;42.206;25.320;2022-10-31T09:59:57;100093.94;;;34.03;21.30
73501;BME280;61721;42.206;25.320;2022-10-31T10:02:30;100082.47;;;34.53;21.35
73501;BME280;61721;42.206;25.320;2022-10-31T10:05:05;100082.53;;;35.06;20.85
73501;BME280;61721;42.206;25.320;2022-10-31T10:07:41;100086.00;;;34.69;20.67
73501;BME280;61721;42.206;25.320;2022-10-31T10:10:16;100082.31;;;35.02;20.08
73501;BME280;61721;42.206;25.320;2022-10-31T10:13:09;100083.00;;;35.18;20.83
73501;BME280;61721;42.206;25.320;2022-10-31T10:15:56;100068.00;;;36.04;19.82
73501;BME280;61721;42.206;25.320;2022-10-31T10:18:36;100072.19;;;36.58;19.37
73501;BME280;61721;42.206;25.320;2022-10-31T10:21:20;100075.00;;;36.90;18.92
73501;BME280;61721;42.206;25.320;2022-10-31T10:24:01;100074.16;;;37.03;18.73
73501;BME280;61721;42.206;25.320;2022-10-31T10:26:34;100068.00;;;36.23;20.99
73501;BME280;61721;42.206;25.320;2022-10-31T10:29:20;100067.09;;;36.46;19.72
73501;BME280;61721;42.206;25.320;2022-10-31T10:31:52;100064.22;;;36.32;19.43
73501;BME280;61721;42.206;25.320;2022-10-31T10:34:26;100059.91;;;36.26;19.39
73501;BME280;61721;42.206;25.320;2022-10-31T10:37:01;100054.50;;;36.81;18.81
73501;BME280;61721;42.206;25.320;2022-10-31T10:39:36;100053.75;;;34.63;20.11
73501;BME280;61721;42.206;25.320;2022-10-31T10:42:11;100054.47;;;35.31;19.62
73501;BME280;61721;42.206;25.320;2022-10-31T10:45:00;100046.69;;;35.94;19.23
73501;BME280;61721;42.206;25.320;2022-10-31T10:47:59;100047.59;;;35.24;18.71
73501;BME280;61721;42.206;25.320;2022-10-31T10:50:34;100042.97;;;35.14;19.91
73501;BME280;61721;42.206;25.320;2022-10-31T10:53:29;100040.97;;;34.28;20.54
73501;BME280;61721;42.206;25.320;2022-10-31T10:56:11;100041.19;;;35.71;20.74
73501;BME280;61721;42.206;25.320;2022-10-31T10:58:47;100037.34;;;35.85;19.93
73501;BME280;61721;42.206;25.320;2022-10-31T11:01:22;100040.03;;;36.79;18.54
73501;BME280;61721;42.206;25.320;2022-10-31T11:03:54;100045.72;;;35.61;19.78
73501;BME280;61721;42.206;25.320;2022-10-31T11:06:25;100035.72;;;35.60;19.24
73501;BME280;61721;42.206;25.320;2022-10-31T11:08:54;100036.47;;;34.37;20.35
73501;BME280;61721;42.206;25.320;2022-10-31T11:11:28;100031.16;;;35.70;19.25
73501;BME280;61721;42.206;25.320;2022-10-31T11:14:05;100033.28;;;36.34;18.75
73501;BME280;61721;42.206;25.320;2022-10-31T11:16:48;100025.50;;;34.80;19.92
73501;BME280;61721;42.206;25.320;2022-10-31T11:19:21;100031.19;;;33.97;20.24
73501;BME280;61721;42.206;25.320;2022-10-31T11:22:05;100018.44;;;34.63;19.24
73501;BME280;61721;42.206;25.320;2022-10-31T11:24:39;100017.03;;;33.39;21.03
73501;BME280;61721;42.206;25.320;2022-10-31T11:27:16;100021.66;;;32.69;21.37
73501;BME280;61721;42.206;25.320;2022-10-31T11:29:49;100015.13;;;33.83;20.04
73501;BME280;61721;42.206;25.320;2022-10-31T11:32:30;100017.66;;;33.16;20.88
73501;BME280;61721;42.206;25.320;2022-10-31T11:35:03;100016.56;;;33.12;20.51
73501;BME280;61721;42.206;25.320;2022-10-31T11:37:43;100015.88;;;34.38;20.00
73501;BME280;61721;42.206;25.320;2022-10-31T11:40:24;100009.50;;;34.66;19.64
73501;BME280;61721;42.206;25.320;2022-10-31T11:42:57;99999.56;;;35.79;18.64
73501;BME280;61721;42.206;25.320;2022-10-31T11:45:33;100002.59;;;37.12;17.43
73501;BME280;61721;42.206;25.320;2022-10-31T11:48:16;99998.00;;;38.07;17.03
73501;BME280;61721;42.206;25.320;2022-10-31T11:50:49;99993.78;;;38.63;16.73
73501;BME280;61721;42.206;25.320;2022-10-31T11:53:25;99989.72;;;38.46;16.55
73501;BME280;61721;42.206;25.320;2022-10-31T11:56:09;99996.13;;;36.71;17.89
73501;BME280;61721;42.206;25.320;2022-10-31T11:58:39;99997.72;;;37.32;17.47
73501;BME280;61721;42.206;25.320;2022-10-31T12:01:24;100010.72;;;37.09;17.51
73501;BME280;61721;42.206;25.320;2022-10-31T12:04:04;100002.13;;;36.92;17.53
73501;BME280;61721;42.206;25.320;2022-10-31T12:06:35;99994.03;;;37.72;17.96
73501;BME280;61721;42.206;25.320;2022-10-31T12:09:18;99998.19;;;38.55;16.42
73501;BME280;61721;42.206;25.320;2022-10-31T12:11:59;100003.28;;;37.32;17.46
73501;BME280;61721;42.206;25.320;2022-10-31T12:14:37;99993.88;;;38.04;16.98
73501;BME280;61721;42.206;25.320;2022-10-31T12:17:14;99990.53;;;36.98;17.29
73501;BME280;61721;42.206;25.320;2022-10-31T12:19:58;99984.25;;;36.14;17.92
73501;BME280;61721;42.206;25.320;2022-10-31T12:22:36;99993.34;;;35.21;18.71
73501;BME280;61721;42.206;25.320;2022-10-31T12:25:28;99982.53;;;33.99;19.98
73501;BME280;61721;42.206;25.320;2022-10-31T12:31:19;99983.56;;;33.69;19.80
73501;BME280;61721;42.206;25.320;2022-10-31T12:33:57;99973.44;;;34.27;19.23
73501;BME280;61721;42.206;25.320;2022-10-31T12:36:46;99984.09;;;35.02;18.59
73501;BME280;61721;42.206;25.320;2022-10-31T12:39:32;99984.53;;;35.14;18.59
73501;BME280;61721;42.206;25.320;2022-10-31T12:42:12;99985.41;;;35.33;18.28
73501;BME280;61721;42.206;25.320;2022-10-31T12:45:10;99977.66;;;35.30;18.22
73501;BME280;61721;42.206;25.320;2022-10-31T12:48:10;99977.78;;;34.67;18.89
73501;BME280;61721;42.206;25.320;2022-10-31T12:50:57;99976.00;;;34.19;19.45
73501;BME280;61721;42.206;25.320;2022-10-31T12:53:38;99989.13;;;33.69;19.83
73501;BME280;61721;42.206;25.320;2022-10-31T12:56:27;99992.84;;;32.19;20.89
73501;BME280;61721;42.206;25.320;2022-10-31T12:59:09;99976.72;;;31.86;21.25
73501;BME280;61721;42.206;25.320;2022-10-31T13:01:44;99982.56;;;32.00;21.13
73501;BME280;61721;42.206;25.320;2022-10-31T13:04:19;99984.22;;;32.31;20.61
73501;BME280;61721;42.206;25.320;2022-10-31T13:06:54;99989.91;;;33.16;20.02
73501;BME280;61721;42.206;25.320;2022-10-31T13:09:32;99989.47;;;32.63;20.59
73501;BME280;61721;42.206;25.320;2022-10-31T13:12:08;99986.34;;;33.00;20.06
73501;BME280;61721;42.206;25.320;2022-10-31T13:14:41;99982.53;;;33.55;19.44
73501;BME280;61721;42.206;25.320;2022-10-31T13:17:20;99988.13;;;32.40;20.61
73501;BME280;61721;42.206;25.320;2022-10-31T13:19:54;99983.25;;;31.50;21.12
73501;BME280;61721;42.206;25.320;2022-10-31T13:22:31;99980.34;;;32.42;20.40
73501;BME280;61721;42.206;25.320;2022-10-31T13:25:11;99978.81;;;34.48;18.11
73501;BME280;61721;42.206;25.320;2022-10-31T13:27:46;99987.09;;;36.09;17.23